Yuho Maru No.6 — JD3708 — position and weather

sailwx.info

Track history (hours):
 
Tides and Currents Weather Stations Pressure Air Temp Water Temp Dewpoint Dewpoint Depression Visibility Wind Speed Wind Dir Waves Ship Positions

Yuho Maru No.6

Last reported at 2017-Dec-18 04:37 UTC. Time now 2017-Dec-18 05:19 UTC.
Position N 34°43' E 136°48'.

Length 65 m; draft 4.5 m.

Type: Tanker. MMSI: 431005551.

Date/timePositionNaut miles runAvg speedWind from/ knotsBaromVisibWave heightAir tempDewpointWater temp
2017-Dec-18 04:37N 34°43' E 136°48'212.1
2017-Dec-18 04:29N 34°45' E 136°48'611.9
2017-Dec-18 04:00N 34°50' E 136°46'612.3
2017-Dec-18 03:31N 34°56' E 136°46'510.3
2017-Dec-18 03:00N 35°00' E 136°50'4 8.0
2017-Dec-18 02:30N 35°04' E 136°53'0 0.0
2017-Dec-18 02:00N 35°04' E 136°53'0 0.0
2017-Dec-18 01:30N 35°04' E 136°53'0 0.0
2017-Dec-18 00:55N 35°04' E 136°53'0 0.0
2017-Dec-18 00:28N 35°04' E 136°53'0 0.0
2017-Dec-17 23:49N 35°04' E 136°53'0 0.0
2017-Dec-17 23:31N 35°04' E 136°53'3 5.2
2017-Dec-17 23:00N 35°02' E 136°51'511.0
2017-Dec-17 22:31N 34°57' E 136°47'0 0.4
2017-Dec-17 22:01N 34°57' E 136°47'0 0.0
2017-Dec-17 21:30N 34°57' E 136°47'0 0.0
2017-Dec-17 21:00N 34°57' E 136°47'0 0.0
2017-Dec-17 20:31N 34°57' E 136°47'4 7.9
2017-Dec-17 20:01N 34°53' E 136°47'611.8
2017-Dec-17 19:30N 34°47' E 136°48'611.5
2017-Dec-17 19:00N 34°42' E 136°51'1411.3
2017-Dec-17 17:46N 34°33' E 137°05'312.1
2017-Dec-17 17:29N 34°34' E 137°09'3510.9
2017-Dec-17 14:14N 34°36' E 137°52'311.2
2017-Dec-17 13:59N 34°36' E 137°55'710.7
2017-Dec-17 13:21N 34°35' E 138°03'3 9.7
2017-Dec-17 13:00N 34°35' E 138°08'5 9.2
2017-Dec-17 12:25N 34°35' E 138°14'410.0
2017-Dec-17 11:58N 34°35' E 138°19'5 9.6
2017-Dec-17 11:30N 34°37' E 138°25'5 8.7
2017-Dec-17 10:55N 34°36' E 138°31'3 7.6
2017-Dec-17 10:30N 34°36' E 138°34'4 7.0
2017-Dec-17 10:00N 34°35' E 138°39'4 7.5
2017-Dec-17 09:28N 34°35' E 138°44'4 8.9
2017-Dec-17 09:00N 34°35' E 138°49'5 8.7
2017-Dec-17 08:27N 34°36' E 138°54'4 7.9
2017-Dec-17 07:57N 34°38' E 138°58'511.0
2017-Dec-17 07:31N 34°41' E 139°02'611.4
2017-Dec-17 07:00N 34°46' E 139°06'711.8
2017-Dec-17 06:23N 34°52' E 139°11'511.8
2017-Dec-17 05:59N 34°55' E 139°16'611.3
2017-Dec-17 05:26N 34°58' E 139°23'510.8
2017-Dec-17 05:01N 35°00' E 139°28'611.2
2017-Dec-17 04:30N 35°03' E 139°33'612.0
2017-Dec-17 04:00N 35°06' E 139°40'612.0
2017-Dec-17 03:30N 35°11' E 139°45'611.1
2017-Dec-17 03:00N 35°16' E 139°46'611.5
2017-Dec-17 02:30N 35°21' E 139°42'510.0
2017-Dec-17 02:01N 35°26' E 139°45'612.1
2017-Dec-17 01:30N 35°29' E 139°51'611.2
2017-Dec-17 01:00N 35°35' E 139°53'0 0.3
2017-Dec-16 23:30N 35°35' E 139°53'0 0.0
2017-Dec-16 22:57N 35°35' E 139°53'0 0.0
2017-Dec-16 21:29N 35°35' E 139°53'0 0.0
2017-Dec-16 20:03N 35°35' E 139°53'0 0.0
2017-Dec-16 18:05N 35°35' E 139°53'0 0.0
2017-Dec-16 17:51N 35°35' E 139°53'0 0.0
2017-Dec-16 17:31N 35°35' E 139°53'0 0.1
2017-Dec-16 16:54N 35°35' E 139°53'0 0.0
2017-Dec-16 15:35N 35°35' E 139°53'0 0.1
2017-Dec-16 15:23N 35°35' E 139°53'0 0.0
2017-Dec-16 14:40N 35°35' E 139°53'0 0.1
2017-Dec-16 14:28N 35°35' E 139°53'0 0.1
2017-Dec-16 13:59N 35°35' E 139°53'0 0.1
2017-Dec-16 13:28N 35°35' E 139°53'0 0.0
2017-Dec-16 12:58N 35°35' E 139°53'0 0.1
2017-Dec-16 12:30N 35°35' E 139°53'0 0.1
2017-Dec-16 11:58N 35°35' E 139°53'0 0.0
2017-Dec-16 11:21N 35°35' E 139°53'0 0.0
2017-Dec-16 10:29N 35°35' E 139°53'0 0.0
2017-Dec-16 09:52N 35°35' E 139°53'0 0.0
2017-Dec-16 09:31N 35°35' E 139°53'0 0.0
2017-Dec-16 08:54N 35°35' E 139°53'0 0.0
2017-Dec-16 08:30N 35°35' E 139°53'1 1.9
2017-Dec-16 07:59N 35°35' E 139°54'5 9.6
2017-Dec-16 07:30N 35°32' E 139°59'4 7.5
2017-Dec-16 07:00N 35°30' E 140°02'0 0.0
2017-Dec-16 06:30N 35°30' E 140°02'0 0.0
2017-Dec-16 06:00N 35°30' E 140°02'0 0.0
2017-Dec-16 05:30N 35°30' E 140°02'0 0.0
2017-Dec-16 05:00N 35°30' E 140°02'0 0.0
2017-Dec-16 04:30N 35°30' E 140°02'0 0.1
2017-Dec-16 04:00N 35°30' E 140°02'0 0.0
2017-Dec-16 03:30N 35°30' E 140°02'0 0.0
2017-Dec-16 02:59N 35°30' E 140°02'0 0.0
2017-Dec-16 02:29N 35°30' E 140°02'0 0.0
2017-Dec-16 02:00N 35°30' E 140°02'0 0.0
2017-Dec-16 01:30N 35°30' E 140°02'0 0.0
2017-Dec-16 01:00N 35°30' E 140°02'0 0.0
2017-Dec-16 00:30N 35°30' E 140°02'0 0.0
2017-Dec-15 23:59N 35°30' E 140°02'0 0.0
2017-Dec-15 23:30N 35°30' E 140°02'1 1.4
2017-Dec-15 23:00N 35°30' E 140°01'1 1.1
2017-Dec-15 22:30N 35°30' E 140°01'0 0.0
2017-Dec-15 22:01N 35°30' E 140°01'4 7.3
2017-Dec-15 21:29N 35°33' E 139°57'2 4.7
2017-Dec-15 20:59N 35°34' E 139°55'0 0.0
2017-Dec-15 20:14N 35°34' E 139°55'0 0.0
2017-Dec-15 20:00N 35°34' E 139°55'0 0.0
2017-Dec-15 19:25N 35°34' E 139°55'0 0.0
2017-Dec-15 19:00N 35°34' E 139°55'0 0.0
2017-Dec-15 18:21N 35°34' E 139°55'0 0.0
2017-Dec-15 17:59N 35°34' E 139°55'0 0.0
2017-Dec-15 17:31N 35°34' E 139°55'0 0.0
2017-Dec-15 17:00N 35°34' E 139°55'0 0.0
2017-Dec-15 16:30N 35°34' E 139°55'0 0.0
2017-Dec-15 15:59N 35°34' E 139°55'0 0.0
2017-Dec-15 15:30N 35°34' E 139°55'0 0.0
2017-Dec-15 15:01N 35°34' E 139°55'0 0.0
2017-Dec-15 14:30N 35°34' E 139°55'0 0.0
2017-Dec-15 13:59N 35°34' E 139°55'0 0.0
2017-Dec-15 13:31N 35°34' E 139°55'0 0.0
2017-Dec-15 12:59N 35°34' E 139°55'0 0.0
2017-Dec-15 12:31N 35°34' E 139°55'0 0.0
2017-Dec-15 11:59N 35°34' E 139°55'0 0.1
2017-Dec-15 11:17N 35°34' E 139°55'0 0.1
2017-Dec-15 10:58N 35°34' E 139°55'0 0.0
2017-Dec-15 10:30N 35°34' E 139°55'0 0.1
2017-Dec-15 09:47N 35°34' E 139°55'0 0.2
2017-Dec-15 09:30N 35°34' E 139°55'0 0.1
2017-Dec-15 08:53N 35°34' E 139°55'0 0.0
2017-Dec-15 08:30N 35°34' E 139°55'0 0.0
2017-Dec-15 07:15N 35°34' E 139°55'0 0.0
2017-Dec-15 06:57N 35°34' E 139°55'3 7.1
2017-Dec-15 06:30N 35°32' E 139°58'4 8.5
2017-Dec-15 06:00N 35°30' E 140°02'0 0.0
2017-Dec-15 05:31N 35°30' E 140°02'0 0.0
2017-Dec-15 04:57N 35°30' E 140°02'0 0.0
2017-Dec-15 04:30N 35°30' E 140°02'1 2.9
2017-Dec-15 04:01N 35°30' E 140°00'7 4.3
2017-Dec-15 02:30N 35°35' E 139°55'5 3.3
2017-Dec-15 00:53N 35°40' E 139°56'0 0.0
2017-Dec-15 00:26N 35°40' E 139°56'44 7.4
2017-Dec-14 18:29N 35°00' E 139°35'1512.7
2017-Dec-14 17:16N 34°51' E 139°20'412.4
2017-Dec-14 16:59N 34°48' E 139°17'612.3
2017-Dec-14 16:28N 34°44' E 139°11'611.6
2017-Dec-14 15:56N 34°40' E 139°05'1311.6
2017-Dec-14 14:48N 34°35' E 138°50'513.3
2017-Dec-14 14:24N 34°34' E 138°44'512.0
2017-Dec-14 13:59N 34°34' E 138°38'612.1
2017-Dec-14 13:30N 34°34' E 138°31'712.5
2017-Dec-14 12:55N 34°34' E 138°22'7811.8
2017-Dec-14 06:18N 34°44' E 136°48'412.4
2017-Dec-14 05:59N 34°47' E 136°46'612.5
2017-Dec-14 05:30N 34°53' E 136°46'612.0
2017-Dec-14 05:00N 34°59' E 136°48'2 4.9
2017-Dec-14 04:30N 35°01' E 136°50'0 0.0
2017-Dec-14 04:00N 35°01' E 136°50'2 3.9
2017-Dec-14 03:30N 35°02' E 136°51'2 3.6
2017-Dec-14 03:00N 35°04' E 136°53'0 0.0
2017-Dec-14 02:30N 35°04' E 136°53'0 0.0
2017-Dec-14 02:00N 35°04' E 136°53'0 0.0
2017-Dec-14 01:30N 35°04' E 136°53'0 0.1
2017-Dec-14 01:00N 35°04' E 136°53'0 0.1
2017-Dec-14 00:30N 35°04' E 136°53'0 0.1
2017-Dec-14 00:00N 35°04' E 136°53'0 0.1
2017-Dec-13 23:30N 35°04' E 136°53'4 9.0
2017-Dec-13 23:00N 35°00' E 136°50'4 8.2
2017-Dec-13 22:30N 34°57' E 136°46'0 0.1
2017-Dec-13 21:58N 34°57' E 136°46'0 0.0
2017-Dec-13 21:28N 34°57' E 136°46'0 0.0
2017-Dec-13 20:58N 34°57' E 136°46'0 0.0
2017-Dec-13 20:28N 34°57' E 136°46'0 0.0
2017-Dec-13 19:58N 34°57' E 136°46'0 0.0
2017-Dec-13 19:28N 34°57' E 136°46'0 0.0
2017-Dec-13 18:52N 34°57' E 136°46'0 0.0
2017-Dec-13 18:28N 34°57' E 136°46'0 0.0
2017-Dec-13 17:58N 34°57' E 136°46'0 0.0
2017-Dec-13 17:28N 34°57' E 136°46'0 0.0
2017-Dec-13 16:58N 34°57' E 136°46'0 0.0
2017-Dec-13 16:25N 34°57' E 136°46'0 0.0
2017-Dec-13 15:58N 34°57' E 136°46'0 0.0
2017-Dec-13 15:28N 34°57' E 136°46'0 0.0
2017-Dec-13 14:58N 34°57' E 136°46'0 0.1
2017-Dec-13 14:30N 34°57' E 136°46'4 8.1
2017-Dec-13 14:00N 34°53' E 136°47'611.0
2017-Dec-13 13:30N 34°48' E 136°48'510.8
2017-Dec-13 13:00N 34°43' E 136°51'101 7.5
2017-Dec-12 23:32N 33°58' E 135°02'211.5
2017-Dec-12 23:23N 33°59' E 135°02'411.8
2017-Dec-12 23:00N 34°04' E 135°02'612.2
2017-Dec-12 22:30N 34°10' E 135°02'611.1
2017-Dec-12 22:01N 34°15' E 135°03'611.2
2017-Dec-12 21:30N 34°20' E 135°06'4 8.2
2017-Dec-12 21:01N 34°23' E 135°10'0 0.1
2017-Dec-12 20:30N 34°23' E 135°10'0 0.0
2017-Dec-12 20:00N 34°23' E 135°10'0 0.0
2017-Dec-12 19:30N 34°23' E 135°10'0 0.0
2017-Dec-12 19:00N 34°23' E 135°10'0 0.0
2017-Dec-12 18:30N 34°23' E 135°10'0 0.0
2017-Dec-12 18:00N 34°23' E 135°10'0 0.0
2017-Dec-12 17:30N 34°23' E 135°10'0 0.0
2017-Dec-12 17:00N 34°23' E 135°10'0 0.0
2017-Dec-12 16:30N 34°23' E 135°10'0 0.0
2017-Dec-12 16:00N 34°23' E 135°10'0 0.0
2017-Dec-12 15:30N 34°23' E 135°10'0 0.0
2017-Dec-12 15:00N 34°23' E 135°10'0 0.0
2017-Dec-12 14:30N 34°23' E 135°10'0 0.0
2017-Dec-12 14:01N 34°23' E 135°10'0 0.0
2017-Dec-12 13:30N 34°23' E 135°10'0 0.0
2017-Dec-12 13:00N 34°23' E 135°10'0 0.0
2017-Dec-12 12:30N 34°23' E 135°10'0 0.0
2017-Dec-12 12:00N 34°23' E 135°10'0 0.0
2017-Dec-12 11:30N 34°23' E 135°10'0 0.0
2017-Dec-12 11:00N 34°23' E 135°10'0 0.0
2017-Dec-12 10:30N 34°23' E 135°10'0 0.0
2017-Dec-12 10:00N 34°23' E 135°10'0 0.0
2017-Dec-12 09:30N 34°23' E 135°10'0 0.0
2017-Dec-12 09:00N 34°23' E 135°10'0 0.0
2017-Dec-12 08:30N 34°23' E 135°10'0 0.0
2017-Dec-12 08:00N 34°23' E 135°10'0 0.0
2017-Dec-12 07:30N 34°23' E 135°10'0 0.0
2017-Dec-12 07:00N 34°23' E 135°10'0 0.0
2017-Dec-12 06:30N 34°23' E 135°10'0 0.0
2017-Dec-12 06:00N 34°23' E 135°10'0 0.0
2017-Dec-12 05:30N 34°23' E 135°10'0 0.0
2017-Dec-12 05:00N 34°23' E 135°10'0 0.0
2017-Dec-12 04:30N 34°23' E 135°10'0 0.0
2017-Dec-12 04:00N 34°23' E 135°10'0 0.0
2017-Dec-12 03:30N 34°23' E 135°10'0 0.0
2017-Dec-12 03:01N 34°23' E 135°10'0 0.0
2017-Dec-12 02:31N 34°23' E 135°10'0 0.0
2017-Dec-12 02:00N 34°23' E 135°10'0 0.0
2017-Dec-12 01:30N 34°23' E 135°10'3 6.2
2017-Dec-12 01:00N 34°21' E 135°07'510.9
2017-Dec-12 00:30N 34°16' E 135°03'611.2
2017-Dec-12 00:00N 34°12' E 134°58'611.5
2017-Dec-11 23:30N 34°09' E 134°53'611.9
2017-Dec-11 22:59N 34°09' E 134°46'713.5
2017-Dec-11 22:30N 34°13' E 134°40'612.9
2017-Dec-11 22:00N 34°17' E 134°33'812.4
2017-Dec-11 21:23N 34°20' E 134°25'1212.7
2017-Dec-11 20:27N 34°25' E 134°12'7710.9
2017-Dec-11 13:24N 34°03' E 132°42'411.5
2017-Dec-11 13:00N 34°01' E 132°38'611.1
2017-Dec-11 12:26N 33°57' E 132°32'2710.8
2017-Dec-11 09:57N 33°46' E 132°02'511.8
2017-Dec-11 09:30N 33°49' E 131°58'812.0
2017-Dec-11 08:51N 33°54' E 131°50'411.9
2017-Dec-11 08:30N 33°57' E 131°47'5 9.2
2017-Dec-11 08:00N 34°01' E 131°48'1 0.4
2017-Dec-11 05:01N 34°02' E 131°48'0 0.2
2017-Dec-11 04:57N 34°02' E 131°48'0 0.0
2017-Dec-11 01:08N 34°02' E 131°49'0 1.7
2017-Dec-11 01:00N 34°02' E 131°49'1 0.2
2017-Dec-10 22:41N 34°02' E 131°49'0 1.4
2017-Dec-10 22:27N 34°02' E 131°49'1 0.0
2017-Dec-09 23:19N 34°02' E 131°48'0 1.2
2017-Dec-09 23:00N 34°02' E 131°48'0 0.2
2017-Dec-09 22:30N 34°02' E 131°48'0 0.0
2017-Dec-09 22:00N 34°02' E 131°48'0 0.0
2017-Dec-09 21:30N 34°02' E 131°48'0 0.0
2017-Dec-09 21:00N 34°02' E 131°48'0 0.0
2017-Dec-09 20:30N 34°02' E 131°48'0 0.0
2017-Dec-09 20:00N 34°02' E 131°48'0 0.0
2017-Dec-09 19:30N 34°02' E 131°48'0 0.0
2017-Dec-09 19:00N 34°02' E 131°48'0 0.0
2017-Dec-09 18:26N 34°02' E 131°48'0 0.0
2017-Dec-09 17:58N 34°02' E 131°48'0 0.0
2017-Dec-09 17:25N 34°02' E 131°48'0 0.0
2017-Dec-09 17:00N 34°02' E 131°48'0 0.0
2017-Dec-09 16:30N 34°02' E 131°48'0 0.0
2017-Dec-09 16:00N 34°02' E 131°48'0 0.0
2017-Dec-09 15:30N 34°02' E 131°48'0 0.0
2017-Dec-09 15:00N 34°02' E 131°48'0 0.7
2017-Dec-09 14:30N 34°02' E 131°48'5 9.8
2017-Dec-09 14:00N 33°57' E 131°47'713.1
2017-Dec-09 13:27N 33°52' E 131°53'813.0
2017-Dec-09 12:50N 33°47' E 132°01'411.2
2017-Dec-09 12:27N 33°47' E 132°06'812.8
2017-Dec-09 11:52N 33°50' E 132°14'513.1
2017-Dec-09 11:30N 33°50' E 132°20'712.4
2017-Dec-09 10:58N 33°53' E 132°27'913.5
2017-Dec-09 10:19N 33°59' E 132°35'413.3
2017-Dec-09 10:01N 34°02' E 132°39'78 8.0
2017-Dec-09 00:12N 34°26' E 134°09'1011.8
2017-Dec-08 23:20N 34°23' E 134°21'412.0
2017-Dec-08 22:58N 34°21' E 134°25'511.3
2017-Dec-08 22:30N 34°18' E 134°31'610.9
2017-Dec-08 21:59N 34°16' E 134°37'4 8.0
2017-Dec-08 21:30N 34°14' E 134°41'0 0.9
2017-Dec-08 21:00N 34°14' E 134°42'0 0.0
2017-Dec-08 20:30N 34°14' E 134°42'0 0.1
2017-Dec-08 20:00N 34°14' E 134°42'0 0.0
2017-Dec-08 19:30N 34°14' E 134°42'0 0.0
2017-Dec-08 19:00N 34°14' E 134°42'0 0.0
2017-Dec-08 18:30N 34°14' E 134°42'0 0.0
2017-Dec-08 18:00N 34°14' E 134°42'0 0.1
2017-Dec-08 17:30N 34°14' E 134°42'0 0.0
2017-Dec-08 17:00N 34°14' E 134°42'1 2.6
2017-Dec-08 16:30N 34°13' E 134°41'611.6
2017-Dec-08 16:00N 34°08' E 134°45'611.7
2017-Dec-08 15:30N 34°04' E 134°49'611.6
2017-Dec-08 15:00N 33°59' E 134°54'611.1
2017-Dec-08 14:30N 33°55' E 134°58'  
Track history (hours):
 
Tides and Currents Weather Stations Pressure Air Temp Water Temp Dewpoint Dewpoint Depression Visibility Wind Speed Wind Dir Waves Ship Positions

Yuho Maru No.6

Last reported at 2017-Dec-18 04:37 UTC. Time now 2017-Dec-18 05:19 UTC.
Position N 34°43' E 136°48'.

Length 65 m; draft 4.5 m.

Type: Tanker. MMSI: 431005551.

Date/timePositionNaut miles runAvg speedWind from/ knotsBaromVisibWave heightAir tempDewpointWater temp
2017-Dec-18 04:37N 34°43' E 136°48'212.1
2017-Dec-18 04:29N 34°45' E 136°48'611.9
2017-Dec-18 04:00N 34°50' E 136°46'612.3
2017-Dec-18 03:31N 34°56' E 136°46'510.3
2017-Dec-18 03:00N 35°00' E 136°50'4 8.0
2017-Dec-18 02:30N 35°04' E 136°53'0 0.0
2017-Dec-18 02:00N 35°04' E 136°53'0 0.0
2017-Dec-18 01:30N 35°04' E 136°53'0 0.0
2017-Dec-18 00:55N 35°04' E 136°53'0 0.0
2017-Dec-18 00:28N 35°04' E 136°53'0 0.0
2017-Dec-17 23:49N 35°04' E 136°53'0 0.0
2017-Dec-17 23:31N 35°04' E 136°53'3 5.2
2017-Dec-17 23:00N 35°02' E 136°51'511.0
2017-Dec-17 22:31N 34°57' E 136°47'0 0.4
2017-Dec-17 22:01N 34°57' E 136°47'0 0.0
2017-Dec-17 21:30N 34°57' E 136°47'0 0.0
2017-Dec-17 21:00N 34°57' E 136°47'0 0.0
2017-Dec-17 20:31N 34°57' E 136°47'4 7.9
2017-Dec-17 20:01N 34°53' E 136°47'611.8
2017-Dec-17 19:30N 34°47' E 136°48'611.5
2017-Dec-17 19:00N 34°42' E 136°51'1411.3
2017-Dec-17 17:46N 34°33' E 137°05'312.1
2017-Dec-17 17:29N 34°34' E 137°09'3510.9
2017-Dec-17 14:14N 34°36' E 137°52'311.2
2017-Dec-17 13:59N 34°36' E 137°55'710.7
2017-Dec-17 13:21N 34°35' E 138°03'3 9.7
2017-Dec-17 13:00N 34°35' E 138°08'5 9.2
2017-Dec-17 12:25N 34°35' E 138°14'410.0
2017-Dec-17 11:58N 34°35' E 138°19'5 9.6
2017-Dec-17 11:30N 34°37' E 138°25'5 8.7
2017-Dec-17 10:55N 34°36' E 138°31'3 7.6
2017-Dec-17 10:30N 34°36' E 138°34'4 7.0
2017-Dec-17 10:00N 34°35' E 138°39'4 7.5
2017-Dec-17 09:28N 34°35' E 138°44'4 8.9
2017-Dec-17 09:00N 34°35' E 138°49'5 8.7
2017-Dec-17 08:27N 34°36' E 138°54'4 7.9
2017-Dec-17 07:57N 34°38' E 138°58'511.0
2017-Dec-17 07:31N 34°41' E 139°02'611.4
2017-Dec-17 07:00N 34°46' E 139°06'711.8
2017-Dec-17 06:23N 34°52' E 139°11'511.8
2017-Dec-17 05:59N 34°55' E 139°16'611.3
2017-Dec-17 05:26N 34°58' E 139°23'510.8
2017-Dec-17 05:01N 35°00' E 139°28'611.2
2017-Dec-17 04:30N 35°03' E 139°33'612.0
2017-Dec-17 04:00N 35°06' E 139°40'612.0
2017-Dec-17 03:30N 35°11' E 139°45'611.1
2017-Dec-17 03:00N 35°16' E 139°46'611.5
2017-Dec-17 02:30N 35°21' E 139°42'510.0
2017-Dec-17 02:01N 35°26' E 139°45'612.1
2017-Dec-17 01:30N 35°29' E 139°51'611.2
2017-Dec-17 01:00N 35°35' E 139°53'0 0.3
2017-Dec-16 23:30N 35°35' E 139°53'0 0.0
2017-Dec-16 22:57N 35°35' E 139°53'0 0.0
2017-Dec-16 21:29N 35°35' E 139°53'0 0.0
2017-Dec-16 20:03N 35°35' E 139°53'0 0.0
2017-Dec-16 18:05N 35°35' E 139°53'0 0.0
2017-Dec-16 17:51N 35°35' E 139°53'0 0.0
2017-Dec-16 17:31N 35°35' E 139°53'0 0.1
2017-Dec-16 16:54N 35°35' E 139°53'0 0.0
2017-Dec-16 15:35N 35°35' E 139°53'0 0.1
2017-Dec-16 15:23N 35°35' E 139°53'0 0.0
2017-Dec-16 14:40N 35°35' E 139°53'0 0.1
2017-Dec-16 14:28N 35°35' E 139°53'0 0.1
2017-Dec-16 13:59N 35°35' E 139°53'0 0.1
2017-Dec-16 13:28N 35°35' E 139°53'0 0.0
2017-Dec-16 12:58N 35°35' E 139°53'0 0.1
2017-Dec-16 12:30N 35°35' E 139°53'0 0.1
2017-Dec-16 11:58N 35°35' E 139°53'0 0.0
2017-Dec-16 11:21N 35°35' E 139°53'0 0.0
2017-Dec-16 10:29N 35°35' E 139°53'0 0.0
2017-Dec-16 09:52N 35°35' E 139°53'0 0.0
2017-Dec-16 09:31N 35°35' E 139°53'0 0.0
2017-Dec-16 08:54N 35°35' E 139°53'0 0.0
2017-Dec-16 08:30N 35°35' E 139°53'1 1.9
2017-Dec-16 07:59N 35°35' E 139°54'5 9.6
2017-Dec-16 07:30N 35°32' E 139°59'4 7.5
2017-Dec-16 07:00N 35°30' E 140°02'0 0.0
2017-Dec-16 06:30N 35°30' E 140°02'0 0.0
2017-Dec-16 06:00N 35°30' E 140°02'0 0.0
2017-Dec-16 05:30N 35°30' E 140°02'0 0.0
2017-Dec-16 05:00N 35°30' E 140°02'0 0.0
2017-Dec-16 04:30N 35°30' E 140°02'0 0.1
2017-Dec-16 04:00N 35°30' E 140°02'0 0.0
2017-Dec-16 03:30N 35°30' E 140°02'0 0.0
2017-Dec-16 02:59N 35°30' E 140°02'0 0.0
2017-Dec-16 02:29N 35°30' E 140°02'0 0.0
2017-Dec-16 02:00N 35°30' E 140°02'0 0.0
2017-Dec-16 01:30N 35°30' E 140°02'0 0.0
2017-Dec-16 01:00N 35°30' E 140°02'0 0.0
2017-Dec-16 00:30N 35°30' E 140°02'0 0.0
2017-Dec-15 23:59N 35°30' E 140°02'0 0.0
2017-Dec-15 23:30N 35°30' E 140°02'1 1.4
2017-Dec-15 23:00N 35°30' E 140°01'1 1.1
2017-Dec-15 22:30N 35°30' E 140°01'0 0.0
2017-Dec-15 22:01N 35°30' E 140°01'4 7.3
2017-Dec-15 21:29N 35°33' E 139°57'2 4.7
2017-Dec-15 20:59N 35°34' E 139°55'0 0.0
2017-Dec-15 20:14N 35°34' E 139°55'0 0.0
2017-Dec-15 20:00N 35°34' E 139°55'0 0.0
2017-Dec-15 19:25N 35°34' E 139°55'0 0.0
2017-Dec-15 19:00N 35°34' E 139°55'0 0.0
2017-Dec-15 18:21N 35°34' E 139°55'0 0.0
2017-Dec-15 17:59N 35°34' E 139°55'0 0.0
2017-Dec-15 17:31N 35°34' E 139°55'0 0.0
2017-Dec-15 17:00N 35°34' E 139°55'0 0.0
2017-Dec-15 16:30N 35°34' E 139°55'0 0.0
2017-Dec-15 15:59N 35°34' E 139°55'0 0.0
2017-Dec-15 15:30N 35°34' E 139°55'0 0.0
2017-Dec-15 15:01N 35°34' E 139°55'0 0.0
2017-Dec-15 14:30N 35°34' E 139°55'0 0.0
2017-Dec-15 13:59N 35°34' E 139°55'0 0.0
2017-Dec-15 13:31N 35°34' E 139°55'0 0.0
2017-Dec-15 12:59N 35°34' E 139°55'0 0.0
2017-Dec-15 12:31N 35°34' E 139°55'0 0.0
2017-Dec-15 11:59N 35°34' E 139°55'0 0.1
2017-Dec-15 11:17N 35°34' E 139°55'0 0.1
2017-Dec-15 10:58N 35°34' E 139°55'0 0.0
2017-Dec-15 10:30N 35°34' E 139°55'0 0.1
2017-Dec-15 09:47N 35°34' E 139°55'0 0.2
2017-Dec-15 09:30N 35°34' E 139°55'0 0.1
2017-Dec-15 08:53N 35°34' E 139°55'0 0.0
2017-Dec-15 08:30N 35°34' E 139°55'0 0.0
2017-Dec-15 07:15N 35°34' E 139°55'0 0.0
2017-Dec-15 06:57N 35°34' E 139°55'3 7.1
2017-Dec-15 06:30N 35°32' E 139°58'4 8.5
2017-Dec-15 06:00N 35°30' E 140°02'0 0.0
2017-Dec-15 05:31N 35°30' E 140°02'0 0.0
2017-Dec-15 04:57N 35°30' E 140°02'0 0.0
2017-Dec-15 04:30N 35°30' E 140°02'1 2.9
2017-Dec-15 04:01N 35°30' E 140°00'7 4.3
2017-Dec-15 02:30N 35°35' E 139°55'5 3.3
2017-Dec-15 00:53N 35°40' E 139°56'0 0.0
2017-Dec-15 00:26N 35°40' E 139°56'44 7.4
2017-Dec-14 18:29N 35°00' E 139°35'1512.7
2017-Dec-14 17:16N 34°51' E 139°20'412.4
2017-Dec-14 16:59N 34°48' E 139°17'612.3
2017-Dec-14 16:28N 34°44' E 139°11'611.6
2017-Dec-14 15:56N 34°40' E 139°05'1311.6
2017-Dec-14 14:48N 34°35' E 138°50'513.3
2017-Dec-14 14:24N 34°34' E 138°44'512.0
2017-Dec-14 13:59N 34°34' E 138°38'612.1
2017-Dec-14 13:30N 34°34' E 138°31'712.5
2017-Dec-14 12:55N 34°34' E 138°22'7811.8
2017-Dec-14 06:18N 34°44' E 136°48'412.4
2017-Dec-14 05:59N 34°47' E 136°46'612.5
2017-Dec-14 05:30N 34°53' E 136°46'612.0
2017-Dec-14 05:00N 34°59' E 136°48'2 4.9
2017-Dec-14 04:30N 35°01' E 136°50'0 0.0
2017-Dec-14 04:00N 35°01' E 136°50'2 3.9
2017-Dec-14 03:30N 35°02' E 136°51'2 3.6
2017-Dec-14 03:00N 35°04' E 136°53'0 0.0
2017-Dec-14 02:30N 35°04' E 136°53'0 0.0
2017-Dec-14 02:00N 35°04' E 136°53'0 0.0
2017-Dec-14 01:30N 35°04' E 136°53'0 0.1
2017-Dec-14 01:00N 35°04' E 136°53'0 0.1
2017-Dec-14 00:30N 35°04' E 136°53'0 0.1
2017-Dec-14 00:00N 35°04' E 136°53'0 0.1
2017-Dec-13 23:30N 35°04' E 136°53'4 9.0
2017-Dec-13 23:00N 35°00' E 136°50'4 8.2
2017-Dec-13 22:30N 34°57' E 136°46'0 0.1
2017-Dec-13 21:58N 34°57' E 136°46'0 0.0
2017-Dec-13 21:28N 34°57' E 136°46'0 0.0
2017-Dec-13 20:58N 34°57' E 136°46'0 0.0
2017-Dec-13 20:28N 34°57' E 136°46'0 0.0
2017-Dec-13 19:58N 34°57' E 136°46'0 0.0
2017-Dec-13 19:28N 34°57' E 136°46'0 0.0
2017-Dec-13 18:52N 34°57' E 136°46'0 0.0
2017-Dec-13 18:28N 34°57' E 136°46'0 0.0
2017-Dec-13 17:58N 34°57' E 136°46'0 0.0
2017-Dec-13 17:28N 34°57' E 136°46'0 0.0
2017-Dec-13 16:58N 34°57' E 136°46'0 0.0
2017-Dec-13 16:25N 34°57' E 136°46'0 0.0
2017-Dec-13 15:58N 34°57' E 136°46'0 0.0
2017-Dec-13 15:28N 34°57' E 136°46'0 0.0
2017-Dec-13 14:58N 34°57' E 136°46'0 0.1
2017-Dec-13 14:30N 34°57' E 136°46'4 8.1
2017-Dec-13 14:00N 34°53' E 136°47'611.0
2017-Dec-13 13:30N 34°48' E 136°48'510.8
2017-Dec-13 13:00N 34°43' E 136°51'101 7.5
2017-Dec-12 23:32N 33°58' E 135°02'211.5
2017-Dec-12 23:23N 33°59' E 135°02'411.8
2017-Dec-12 23:00N 34°04' E 135°02'612.2
2017-Dec-12 22:30N 34°10' E 135°02'611.1
2017-Dec-12 22:01N 34°15' E 135°03'611.2
2017-Dec-12 21:30N 34°20' E 135°06'4 8.2
2017-Dec-12 21:01N 34°23' E 135°10'0 0.1
2017-Dec-12 20:30N 34°23' E 135°10'0 0.0
2017-Dec-12 20:00N 34°23' E 135°10'0 0.0
2017-Dec-12 19:30N 34°23' E 135°10'0 0.0
2017-Dec-12 19:00N 34°23' E 135°10'0 0.0
2017-Dec-12 18:30N 34°23' E 135°10'0 0.0
2017-Dec-12 18:00N 34°23' E 135°10'0 0.0
2017-Dec-12 17:30N 34°23' E 135°10'0 0.0
2017-Dec-12 17:00N 34°23' E 135°10'0 0.0
2017-Dec-12 16:30N 34°23' E 135°10'0 0.0
2017-Dec-12 16:00N 34°23' E 135°10'0 0.0
2017-Dec-12 15:30N 34°23' E 135°10'0 0.0
2017-Dec-12 15:00N 34°23' E 135°10'0 0.0
2017-Dec-12 14:30N 34°23' E 135°10'0 0.0
2017-Dec-12 14:01N 34°23' E 135°10'0 0.0
2017-Dec-12 13:30N 34°23' E 135°10'0 0.0
2017-Dec-12 13:00N 34°23' E 135°10'0 0.0
2017-Dec-12 12:30N 34°23' E 135°10'0 0.0
2017-Dec-12 12:00N 34°23' E 135°10'0 0.0
2017-Dec-12 11:30N 34°23' E 135°10'0 0.0
2017-Dec-12 11:00N 34°23' E 135°10'0 0.0
2017-Dec-12 10:30N 34°23' E 135°10'0 0.0
2017-Dec-12 10:00N 34°23' E 135°10'0 0.0
2017-Dec-12 09:30N 34°23' E 135°10'0 0.0
2017-Dec-12 09:00N 34°23' E 135°10'0 0.0
2017-Dec-12 08:30N 34°23' E 135°10'0 0.0
2017-Dec-12 08:00N 34°23' E 135°10'0 0.0
2017-Dec-12 07:30N 34°23' E 135°10'0 0.0
2017-Dec-12 07:00N 34°23' E 135°10'0 0.0
2017-Dec-12 06:30N 34°23' E 135°10'0 0.0
2017-Dec-12 06:00N 34°23' E 135°10'0 0.0
2017-Dec-12 05:30N 34°23' E 135°10'0 0.0
2017-Dec-12 05:00N 34°23' E 135°10'0 0.0
2017-Dec-12 04:30N 34°23' E 135°10'0 0.0
2017-Dec-12 04:00N 34°23' E 135°10'0 0.0
2017-Dec-12 03:30N 34°23' E 135°10'0 0.0
2017-Dec-12 03:01N 34°23' E 135°10'0 0.0
2017-Dec-12 02:31N 34°23' E 135°10'0 0.0
2017-Dec-12 02:00N 34°23' E 135°10'0 0.0
2017-Dec-12 01:30N 34°23' E 135°10'3 6.2
2017-Dec-12 01:00N 34°21' E 135°07'510.9
2017-Dec-12 00:30N 34°16' E 135°03'611.2
2017-Dec-12 00:00N 34°12' E 134°58'611.5
2017-Dec-11 23:30N 34°09' E 134°53'611.9
2017-Dec-11 22:59N 34°09' E 134°46'713.5
2017-Dec-11 22:30N 34°13' E 134°40'612.9
2017-Dec-11 22:00N 34°17' E 134°33'812.4
2017-Dec-11 21:23N 34°20' E 134°25'1212.7
2017-Dec-11 20:27N 34°25' E 134°12'7710.9
2017-Dec-11 13:24N 34°03' E 132°42'411.5
2017-Dec-11 13:00N 34°01' E 132°38'611.1
2017-Dec-11 12:26N 33°57' E 132°32'2710.8
2017-Dec-11 09:57N 33°46' E 132°02'511.8
2017-Dec-11 09:30N 33°49' E 131°58'812.0
2017-Dec-11 08:51N 33°54' E 131°50'411.9
2017-Dec-11 08:30N 33°57' E 131°47'5 9.2
2017-Dec-11 08:00N 34°01' E 131°48'1 0.4
2017-Dec-11 05:01N 34°02' E 131°48'0 0.2
2017-Dec-11 04:57N 34°02' E 131°48'0 0.0
2017-Dec-11 01:08N 34°02' E 131°49'0 1.7
2017-Dec-11 01:00N 34°02' E 131°49'1 0.2
2017-Dec-10 22:41N 34°02' E 131°49'0 1.4
2017-Dec-10 22:27N 34°02' E 131°49'1 0.0
2017-Dec-09 23:19N 34°02' E 131°48'0 1.2
2017-Dec-09 23:00N 34°02' E 131°48'0 0.2
2017-Dec-09 22:30N 34°02' E 131°48'0 0.0
2017-Dec-09 22:00N 34°02' E 131°48'0 0.0
2017-Dec-09 21:30N 34°02' E 131°48'0 0.0
2017-Dec-09 21:00N 34°02' E 131°48'0 0.0
2017-Dec-09 20:30N 34°02' E 131°48'0 0.0
2017-Dec-09 20:00N 34°02' E 131°48'0 0.0
2017-Dec-09 19:30N 34°02' E 131°48'0 0.0
2017-Dec-09 19:00N 34°02' E 131°48'0 0.0
2017-Dec-09 18:26N 34°02' E 131°48'0 0.0
2017-Dec-09 17:58N 34°02' E 131°48'0 0.0
2017-Dec-09 17:25N 34°02' E 131°48'0 0.0
2017-Dec-09 17:00N 34°02' E 131°48'0 0.0
2017-Dec-09 16:30N 34°02' E 131°48'0 0.0
2017-Dec-09 16:00N 34°02' E 131°48'0 0.0
2017-Dec-09 15:30N 34°02' E 131°48'0 0.0
2017-Dec-09 15:00N 34°02' E 131°48'0 0.7
2017-Dec-09 14:30N 34°02' E 131°48'5 9.8
2017-Dec-09 14:00N 33°57' E 131°47'713.1
2017-Dec-09 13:27N 33°52' E 131°53'813.0
2017-Dec-09 12:50N 33°47' E 132°01'411.2
2017-Dec-09 12:27N 33°47' E 132°06'812.8
2017-Dec-09 11:52N 33°50' E 132°14'513.1
2017-Dec-09 11:30N 33°50' E 132°20'712.4
2017-Dec-09 10:58N 33°53' E 132°27'913.5
2017-Dec-09 10:19N 33°59' E 132°35'413.3
2017-Dec-09 10:01N 34°02' E 132°39'78 8.0
2017-Dec-09 00:12N 34°26' E 134°09'1011.8
2017-Dec-08 23:20N 34°23' E 134°21'412.0
2017-Dec-08 22:58N 34°21' E 134°25'511.3
2017-Dec-08 22:30N 34°18' E 134°31'610.9
2017-Dec-08 21:59N 34°16' E 134°37'4 8.0
2017-Dec-08 21:30N 34°14' E 134°41'0 0.9
2017-Dec-08 21:00N 34°14' E 134°42'0 0.0
2017-Dec-08 20:30N 34°14' E 134°42'0 0.1
2017-Dec-08 20:00N 34°14' E 134°42'0 0.0
2017-Dec-08 19:30N 34°14' E 134°42'0 0.0
2017-Dec-08 19:00N 34°14' E 134°42'0 0.0
2017-Dec-08 18:30N 34°14' E 134°42'0 0.0
2017-Dec-08 18:00N 34°14' E 134°42'0 0.1
2017-Dec-08 17:30N 34°14' E 134°42'0 0.0
2017-Dec-08 17:00N 34°14' E 134°42'1 2.6
2017-Dec-08 16:30N 34°13' E 134°41'611.6
2017-Dec-08 16:00N 34°08' E 134°45'611.7
2017-Dec-08 15:30N 34°04' E 134°49'611.6
2017-Dec-08 15:00N 33°59' E 134°54'611.1
2017-Dec-08 14:30N 33°55' E 134°58'  

Dump ship's entire track history